Aérodrome :
LOGIN :

S'inscrire | Disclaimer

   EN    FR    IT 

 










Légende :    VFR   VFR Marginal   IFR   IFR Intensif   IFR Très Intensif
Visi : 
Plafond : 
>= 8 km
>= 3000ft
5 à 8 km
1000 à 3000 ft
1500m à 5 km
500 à 1000 ft
800 à 1500m
200 à 500 ft
< 800m
< 200 ft
Symboles :   Orages  Brouillard  Fortes neiges  Fortes précipitations  Vent > 20 kt
SIGMETs :   Divers  Orages  Givrage  Turbulence  Onde Orograph.  Cendres Volcan.







- Altitude de l'aérodrome : 461 ft
- Code IATA : WIE


ETOU - Wiesbaden Army

DERNIER METAR :
  • 011719Z AUTO 23008KT 9999 -RA FEW019 BKN025 OVC032 07/05 A2968 RMK AO2 CIG 025V033 BKN V SCT

METARs EXPIRÉS :
  • 011658Z AUTO 24011KT 9999 -RA BKN034 07/04 A2968 RMK AO2 RAB30 SLP057 P0000 T00700044
  • 011630Z AUTO 25015KT 9999 -RA SCT031 BKN049 BKN060 OVC070 08/03 A2968 RMK AO2 RAB30
  • 011558Z AUTO 24009KT 9999 BKN032 OVC090 08/04 A2967 RMK AO2 RAB02E12DZB12E14 SLP053 P0000 T00810038
  • 011514Z AUTO 25014G21KT 9999 FEW035 08/04 A2967 RMK AO2 RAB02E12DZB12E14
  • 011502Z AUTO 25017KT 9999 -RA FEW036 08/03 A2967 RMK AO2 RAB02

TAF AMD TAF ETOU
Valide du 01 à 17h jusqu'au 02 à 18h UTC


011727Z 0117/0218 23010G15KT 9000 -RA BKN030 610309 611202 QNH2964INS
BECMG 0117/0118 20012G18KT 8000 -RA OVC020 620209 621107 QNH2952INS
BECMG 0200/0201 20015G25KT 8000 -SHRA BKN010 620209 621107 510004 QNH2952INS
BECMG 0202/0203 28015G25KT 9999 NSW BKN030 610309 611206 510003 QNH2956INS
TEMPO 0203/0210 20020G35KT 540004 TX10/0212Z TN00/0200Z
Pas de NOTAMs connus pour ce terrain.



MET'MAP, la Météo Aéronautique d'un coup d'oeil ! - Copyright ORBIFLY Décembre 2007 - Disclaimer

ORBIFLY MET'MAP TEAM :

Programmation & Développement : Alexandra Zaïnal
Conception & Développement : Baudouin d'Aumeries
Co-Programmation & Développement : Marc-Olivier Méhu
Soutien technique & logistique : Manuel Goepfert

Contact : metmap@orbifly.com




SOURCES & CREDITS :

   NOAA